aviador You're here:

CYDN Decoded Metar

DAUPHIN in MB, CANADA
Report Time2017-05-26 12:00:00
UTC Time2017-05-26 13:10:10
Flight Rules Old
Wind250° at 13 kt
W.Decomp.*RWY 26: 12.4 kt HW 3.8 kt LCW
RWY 20: 9.5 kt HW 8.9 kt RCW
RWY 32: 2.9 kt HW 12.7 kt LCW
W.Rank250° ranks 4
Current wind is above 250° avg. (8.1)
Visibility9999 m
Phenomena:N/A
Clouds:N/A
Expected CloudBase > 1,600 ft AGL from Temp-Dew spread
CeilingNone
Temp12°C (ISA -1)
Dew Point08°C (77% RH)
AAT6.9°C
QNH997 hPa
Density Alt1,575 ft
Elevation1,001 ft
Report Wrong Elevation
Raw Report
CYDN 261200Z AUTO 25013KT 9SM CLR 12/08 A2944 RMK SLP976 DENSITY
ALT 1400FT=

Extra information for CYDN:More info

Metar Taf Metar & Taf Last 4 Metars F.Rules Stats Wind Profile Meteogram Temp Stats Airport Information Weather charts Add Link Nearby VenuesMetar ALERT Operation Metar Decoded Social comments